^^
Station Historical Data
Daily Summary for June 25, 2017 Units:  Metric    English   Both
« Previous Day
Next Day »
Daily Weekly Monthly Yearly Custom
  High: Low: Average:
Temperature: 24.9 °C 7.8 °C 14.9 °C
Dew Point: 0 °C -3.5 °C -1.9 °C
Humidity: 46% 19% 33%
Wind Speed: 17.7km/h 0km/h 1.4km/h
Wind Gust: 22.5km/h - -
Wind- - NNW
Pressure: 1020.9 hPa 1016.1 hPa -
Precipitation: 0 mm    
Historical Graphs
 
 
Tabular Data for June 25, 2017
Time Temperature Dew Point Pressure Wind Wind Speed Wind Gust Humidity Rainfall Rate (Hourly) solar Conditions
00:01 12.7 °C -2.4 °C 1019.5 hPa Calm     35% 0 mm 0.0 W/m2
00:07 12.6 °C -2.5 °C 1019.5 hPa Calm     35% 0 mm 0.0 W/m2
00:17 12.4 °C -2.3 °C 1019.5 hPa Calm     36% 0 mm 0.0 W/m2
00:32 12.1 °C -2.5 °C 1019.2 hPa Calm     36% 0 mm 0.0 W/m2
00:37 11.9 °C -2.3 °C 1019.2 hPa Calm     37% 0 mm 0.0 W/m2
00:42 12.1 °C -1.8 °C 1019.2 hPa Calm     38% 0 mm 0.0 W/m2
00:48 12.4 °C -2.3 °C 1019.2 hPa Calm     36% 0 mm 0.0 W/m2
00:53 12.8 °C -2.3 °C 1019.2 hPa Calm     35% 0 mm 0.0 W/m2
00:58 13.1 °C -2 °C 1019.2 hPa Calm     35% 0 mm 0.0 W/m2
01:08 13.4 °C -2.2 °C 1019.2 hPa Calm     34% 0 mm 0.0 W/m2
01:13 13.5 °C -2.1 °C 1018.8 hPa Calm     34% 0 mm 0.0 W/m2
01:18 13.6 °C -2 °C 1019.2 hPa Calm     34% 0 mm 0.0 W/m2
01:23 13.4 °C -2.6 °C 1019.2 hPa Calm     33% 0 mm 0.0 W/m2
01:29 12.9 °C -2.6 °C 1019.2 hPa Calm     34% 0 mm 0.0 W/m2
01:34 12.4 °C -2.6 °C 1019.2 hPa Calm     35% 0 mm 0.0 W/m2
01:39 11.9 °C -2.7 °C 1019.2 hPa Calm     36% 0 mm 0.0 W/m2
01:44 11.7 °C -2.5 °C 1019.2 hPa Calm     37% 0 mm 0.0 W/m2
01:49 11.4 °C -2.4 °C 1019.2 hPa Calm     38% 0 mm 0.0 W/m2
01:55 11.3 °C -2.5 °C 1019.2 hPa Calm     38% 0 mm 0.0 W/m2
02:00 11.4 °C -2.4 °C 1019.2 hPa Calm     38% 0 mm 0.0 W/m2
02:05 11.3 °C -2.5 °C 1019.2 hPa Calm     38% 0 mm 0.0 W/m2
02:16 11.2 °C -3 °C 1019.2 hPa Calm     37% 0 mm 0.0 W/m2
02:21 10.6 °C -3.1 °C 1019.2 hPa Calm     38% 0 mm 0.0 W/m2
02:26 10.3 °C -2.7 °C 1019.2 hPa Calm     40% 0 mm 0.0 W/m2
02:31 10.1 °C -2.6 °C 1019.2 hPa Calm     41% 0 mm 0.0 W/m2
02:36 9.8 °C -3.2 °C 1019.2 hPa Calm     40% 0 mm 0.0 W/m2
02:41 9.4 °C -3.2 °C 1019.2 hPa Calm     41% 0 mm 0.0 W/m2
02:46 9.4 °C -2.9 °C 1019.2 hPa Calm     42% 0 mm 0.0 W/m2
02:52 9.6 °C -2.7 °C 1019.2 hPa Calm     42% 0 mm 0.0 W/m2
02:57 9.5 °C -3.1 °C 1019.2 hPa Calm     41% 0 mm 0.0 W/m2
03:02 9.4 °C -2.9 °C 1019.2 hPa Calm     42% 0 mm 0.0 W/m2
03:07 9.6 °C -3 °C 1019.2 hPa Calm     41% 0 mm 0.0 W/m2
03:17 9.4 °C -3.2 °C 1019.2 hPa Calm     41% 0 mm 0.0 W/m2
03:22 9.3 °C -3 °C 1019.2 hPa Calm     42% 0 mm 0.0 W/m2
03:27 9.2 °C -3.1 °C 1019.2 hPa Calm     42% 0 mm 0.0 W/m2
03:32 8.9 °C -3 °C 1019.2 hPa Calm     43% 0 mm 0.0 W/m2
03:38 8.7 °C -3.2 °C 1019.2 hPa Calm     43% 0 mm 0.0 W/m2
03:43 8.6 °C -3.3 °C 1019.2 hPa Calm     43% 0 mm 0.0 W/m2
03:49 8.6 °C -3 °C 1019.5 hPa Calm     44% 0 mm 0.0 W/m2
03:54 8.7 °C -2.9 °C 1019.2 hPa Calm     44% 0 mm 0.0 W/m2
03:59 9.2 °C -2.7 °C 1019.2 hPa Calm     43% 0 mm 0.0 W/m2
04:04 9.7 °C -2.9 °C 1019.2 hPa Calm     41% 0 mm 0.0 W/m2
04:09 9.6 °C -3 °C 1019.2 hPa Calm     41% 0 mm 0.0 W/m2
04:14 9.2 °C -3.1 °C 1019.2 hPa Calm     42% 0 mm 0.0 W/m2
04:20 8.8 °C -3.4 °C 1019.2 hPa Calm     42% 0 mm 0.0 W/m2
04:30 8.2 °C -3.3 °C 1019.2 hPa Calm     44% 0 mm 0.0 W/m2
04:35 8 °C -3.5 °C 1019.2 hPa Calm     44% 0 mm 0.0 W/m2
04:40 7.9 °C -3.3 °C 1019.2 hPa Calm     45% 0 mm 0.0 W/m2
04:45 7.8 °C -3.4 °C 1019.2 hPa Calm     45% 0 mm 0.0 W/m2
04:51 7.8 °C -3.4 °C 1019.5 hPa Calm     45% 0 mm 0.0 W/m2
04:56 7.8 °C -3.4 °C 1019.5 hPa Calm     45% 0 mm 0.0 W/m2
05:01 7.9 °C -3.3 °C 1019.5 hPa Calm     45% 0 mm 0.0 W/m2
05:06 8.1 °C -3.1 °C 1019.5 hPa Calm     45% 0 mm 0.0 W/m2
05:11 8.3 °C -2.9 °C 1019.5 hPa Calm     45% 0 mm 0.0 W/m2
05:17 8.7 °C -2.9 °C 1019.5 hPa Calm     44% 0 mm 0.0 W/m2
05:22 8.8 °C -2.8 °C 1019.5 hPa Calm     44% 0 mm 0.0 W/m2
05:32 9.3 °C -2.6 °C 1019.5 hPa Calm     43% 0 mm 0.0 W/m2
05:37 9.4 °C -2.9 °C 1019.5 hPa Calm     42% 0 mm 0.0 W/m2
05:42 9.4 °C -2.9 °C 1019.5 hPa Calm     42% 0 mm 0.0 W/m2
05:48 9.3 °C -3 °C 1019.5 hPa Calm     42% 0 mm 0.0 W/m2
05:53 9.2 °C -2.7 °C 1019.5 hPa Calm     43% 0 mm 0.0 W/m2
05:58 9.2 °C -3.1 °C 1019.5 hPa Calm     42% 0 mm 0.0 W/m2
06:03 9.1 °C -2.8 °C 1019.9 hPa Calm     43% 0 mm 0.0 W/m2
06:14 8.9 °C -3 °C 1019.9 hPa Calm     43% 0 mm 0.0 W/m2
06:36 8.1 °C -3.1 °C 1020.2 hPa Calm     45% 0 mm 0.0 W/m2
06:39 8.1 °C -3.1 °C 1020.2 hPa Calm     45% 0 mm 5.0 W/m2
06:48 8.1 °C -3.1 °C 1020.2 hPa Calm     45% 0 mm 7.0 W/m2
07:00 7.8 °C -3.1 °C 1020.5 hPa Calm     46% 0 mm 12.0 W/m2
07:10 7.9 °C -3 °C 1020.5 hPa Calm     46% 0 mm 16.0 W/m2
07:17 8.3 °C -2.9 °C 1020.5 hPa Calm     45% 0 mm 23.0 W/m2
07:27 8.4 °C -2.9 °C 1020.5 hPa Calm     45% 0 mm 37.0 W/m2
07:31 8.5 °C -2.8 °C 1020.5 hPa Calm     45% 0 mm 79.0 W/m2
07:47 9.3 °C -2.3 °C 1020.5 hPa Calm     44% 0 mm 123.0 W/m2
08:01 11.1 °C -1.7 °C 1020.5 hPa Calm     41% 0 mm 179.0 W/m2
08:09 11.9 °C -1.6 °C 1020.9 hPa Calm     39% 0 mm 214.0 W/m2
08:16 12.6 °C -1.4 °C 1020.9 hPa Calm     38% 0 mm 232.0 W/m2
08:22 13.7 °C -1.1 °C 1020.9 hPa Calm     36% 0 mm 260.0 W/m2
08:33 14.6 °C -1.1 °C 1020.9 hPa Calm     34% 0 mm 288.0 W/m2
08:50 16.2 °C -1 °C 1020.9 hPa NNW 7.9 km/h 11.3 km/h 31% 0 mm 329.0 W/m2
08:58 17.3 °C -1.4 °C 1020.9 hPa NNW 3.2 km/h 14.5 km/h 28% 0 mm 352.0 W/m2
10:03 19 °C -1.5 °C 1020.5 hPa Calm   14.5 km/h 25% 0 mm 483.0 W/m2
10:14 19.3 °C -1.2 °C 1020.5 hPa Calm     25% 0 mm 499.0 W/m2
10:23 19.7 °C -1.4 °C 1020.5 hPa Calm     24% 0 mm 515.0 W/m2
10:30 20 °C -1.2 °C 1020.5 hPa Calm   6.4 km/h 24% 0 mm 527.0 W/m2
10:40 20.4 °C -1.4 °C 1020.2 hPa Calm     23% 0 mm 540.0 W/m2
10:51 20.4 °C -1.4 °C 1019.9 hPa Calm   8 km/h 23% 0 mm 550.0 W/m2
11:06 21.1 °C -1.5 °C 1019.5 hPa Calm     22% 0 mm 563.0 W/m2
11:22 21.4 °C -1.2 °C 1019.5 hPa Calm     22% 0 mm 573.0 W/m2
11:40 21.8 °C -1.5 °C 1019.2 hPa Calm     21% 0 mm 578.0 W/m2
11:50 22.1 °C -1.3 °C 1018.8 hPa NNW 3.2 km/h 12.9 km/h 21% 0 mm 580.0 W/m2
11:58 22.4 °C -1 °C 1018.8 hPa NNW 7.9 km/h 11.3 km/h 21% 0 mm 578.0 W/m2
12:08 22.6 °C -0.8 °C 1018.5 hPa Calm   3.2 km/h 21% 0 mm 580.0 W/m2
12:33 23.4 °C -0.8 °C 1017.8 hPa NNW 6.4 km/h 12.9 km/h 20% 0 mm 564.0 W/m2
12:38 23.7 °C -0.6 °C 1017.8 hPa NNW 11.1 km/h 14.5 km/h 20% 0 mm 563.0 W/m2
12:43 23.6 °C -0.7 °C 1017.8 hPa Calm   12.9 km/h 20% 0 mm 561.0 W/m2
12:48 23.6 °C -0.7 °C 1017.5 hPa NNW 7.9 km/h 20.9 km/h 20% 0 mm 552.0 W/m2
13:03 23.8 °C -0.5 °C 1017.5 hPa NNW 6.4 km/h 14.5 km/h 20% 0 mm 536.0 W/m2
13:24 24.1 °C -1 °C 1017.2 hPa Calm   8 km/h 19% 0 mm 517.0 W/m2
13:39 24.3 °C -0.8 °C 1016.8 hPa NNW 11.1 km/h 12.9 km/h 19% 0 mm 485.0 W/m2
14:00 24.7 °C -0.5 °C 1016.8 hPa NNW 14.3 km/h 20.9 km/h 19% 0 mm 461.0 W/m2
14:14 24.7 °C -0.5 °C 1016.8 hPa NNW 6.4 km/h 22.5 km/h 19% 0 mm 429.0 W/m2
14:29 24.5 °C -0.6 °C 1016.8 hPa NNW 6.4 km/h 17.7 km/h 19% 0 mm 396.0 W/m2
14:34 24.7 °C -0.5 °C 1016.8 hPa NNW 11.1 km/h 14.5 km/h 19% 0 mm 374.0 W/m2
14:44 24.6 °C -0.6 °C 1016.5 hPa NNW 3.2 km/h 12.9 km/h 19% 0 mm 352.0 W/m2
15:00 24.7 °C -0.5 °C 1016.5 hPa NNW 7.9 km/h 9.7 km/h 19% 0 mm 313.0 W/m2
15:16 24.8 °C -0.4 °C 1016.5 hPa NNW 7.9 km/h 12.9 km/h 19% 0 mm 287.0 W/m2
15:25 24.9 °C -0.3 °C 1016.5 hPa Calm   12.9 km/h 19% 0 mm 244.0 W/m2
15:46 24.9 °C -0.3 °C 1016.1 hPa NNW 9.7 km/h 9.7 km/h 19% 0 mm 195.0 W/m2
15:55 24.7 °C -0.5 °C 1016.1 hPa NNW 3.2 km/h 14.5 km/h 19% 0 mm 144.0 W/m2
16:09 24.7 °C -0.5 °C 1016.1 hPa NNW 17.7 km/h 17.7 km/h 19% 0 mm 111.0 W/m2
16:15 24.6 °C -0.6 °C 1016.1 hPa Calm   11.3 km/h 19% 0 mm 79.0 W/m2
16:35 24.3 °C -0.1 °C 1016.1 hPa Calm   12.9 km/h 20% 0 mm 42.0 W/m2
16:45 23.9 °C -0.4 °C 1016.1 hPa NNW 3.2 km/h 9.7 km/h 20% 0 mm 16.0 W/m2
16:51 23.3 °C -0.9 °C 1016.5 hPa Calm     20% 0 mm 11.0 W/m2
17:11 22.7 °C -0.8 °C 1016.5 hPa Calm     21% 0 mm 0.0 W/m2
17:20 22.2 °C -0.5 °C 1016.5 hPa Calm     22% 0 mm 0.0 W/m2
17:26 21.6 °C -1 °C 1016.5 hPa Calm     22% 0 mm 0.0 W/m2
17:37 21.2 °C -0.8 °C 1016.5 hPa Calm     23% 0 mm 0.0 W/m2
17:47 20.6 °C -1.3 °C 1016.5 hPa Calm     23% 0 mm 0.0 W/m2
17:58 19.4 °C -1.1 °C 1016.8 hPa Calm     25% 0 mm 0.0 W/m2
18:14 18.9 °C -1.6 °C 1016.8 hPa Calm     25% 0 mm 0.0 W/m2
18:23 18.3 °C -1.5 °C 1016.8 hPa Calm     26% 0 mm 0.0 W/m2
18:33 17.6 °C -1.6 °C 1016.8 hPa Calm     27% 0 mm 0.0 W/m2
18:44 17.2 °C -1.5 °C 1016.8 hPa Calm     28% 0 mm 0.0 W/m2
18:54 17.8 °C -1 °C 1016.8 hPa Calm     28% 0 mm 0.0 W/m2
19:09 18.2 °C -1.1 °C 1017.2 hPa Calm     27% 0 mm 0.0 W/m2
19:20 18.3 °C -1 °C 1017.2 hPa Calm     27% 0 mm 0.0 W/m2
19:30 17.6 °C -1.6 °C 1017.2 hPa Calm     27% 0 mm 0.0 W/m2
19:45 17 °C -1.2 °C 1017.2 hPa Calm     29% 0 mm 0.0 W/m2
19:56 17.1 °C -1.1 °C 1017.2 hPa Calm   12.9 km/h 29% 0 mm 0.0 W/m2
20:06 17.8 °C -1 °C 1017.5 hPa Calm     28% 0 mm 0.0 W/m2
20:16 18.1 °C -0.7 °C 1017.2 hPa NNW 11.1 km/h 14.5 km/h 28% 0 mm 0.0 W/m2
20:31 18.4 °C -0.9 °C 1017.2 hPa NNW 6.4 km/h 12.9 km/h 27% 0 mm 0.0 W/m2
20:41 18.5 °C -0.9 °C 1017.2 hPa NNW 1.4 km/h 12.9 km/h 27% 0 mm 0.0 W/m2
20:51 18.4 °C -0.4 °C 1017.5 hPa NNW 9.7 km/h 12.9 km/h 28% 0 mm 0.0 W/m2
21:04 18 °C -0.8 °C 1017.5 hPa NNW 6.4 km/h 9.7 km/h 28% 0 mm 0.0 W/m2
21:11 17.6 °C -0.7 °C 1017.5 hPa Calm   8 km/h 29% 0 mm 0.0 W/m2
21:23 17.4 °C -0.4 °C 1017.5 hPa NNW 6.4 km/h 8 km/h 30% 0 mm 0.0 W/m2
21:26 17.3 °C -0.4 °C 1017.5 hPa Calm   8 km/h 30% 0 mm 0.0 W/m2
21:32 17.3 °C 0 °C 1017.5 hPa Calm   12.9 km/h 31% 0 mm 0.0 W/m2
Canyon Roadhouse, Fishriver Canyon, Namibia
Compliments of Weather Underground - 2.25 mb